Time;durP1;ratioP1;P1;durP2;ratioP2;P2;SDS_P1;SDS_P2;PMS_P1;PMS_P2;Temp;Humidity;BMP_temperature;BMP_pressure;BME280_temperature;BME280_humidity;BME280_pressure;Samples;Min_cycle;Max_cycle;Signal;HPM_P1;HPM_P2
2022/11/25 00:00:12;;;;;;;6.20;5.60;;;;;;;1.05;100.00;97027.38;5031655;28;20710;-71
2022/11/25 00:02:44;;;;;;;7.20;6.03;;;;;;;1.03;100.00;97030.13;5005939;28;20681;-70
2022/11/25 00:05:12;;;;;;;6.27;4.93;;;;;;;1.02;100.00;97028.50;5031712;28;20571;-71
2022/11/25 00:07:39;;;;;;;6.63;6.03;;;;;;;0.99;100.00;97018.31;5006761;28;20235;-71
2022/11/25 00:10:07;;;;;;;6.00;5.37;;;;;;;0.95;100.00;97019.53;4987120;28;20887;-71
2022/11/25 00:12:35;;;;;;;4.83;4.43;;;;;;;0.94;100.00;97023.06;5034566;28;20203;-71
2022/11/25 00:15:03;;;;;;;4.53;4.13;;;;;;;0.91;100.00;97026.75;5027134;28;20451;-72
2022/11/25 00:17:31;;;;;;;6.67;5.60;;;;;;;0.89;100.00;97030.44;5010998;28;20779;-72
2022/11/25 00:20:03;;;;;;;5.30;4.80;;;;;;;0.85;100.00;97033.31;5035391;28;20261;-71
2022/11/25 00:22:30;;;;;;;7.53;6.20;;;;;;;0.82;100.00;97030.13;5006126;28;20215;-71
2022/11/25 00:24:58;;;;;;;8.77;6.53;;;;;;;0.86;100.00;97034.94;5030662;28;20207;-72
2022/11/25 00:27:26;;;;;;;6.60;6.00;;;;;;;0.73;100.00;97042.16;4993210;28;20223;-71
2022/11/25 00:29:53;;;;;;;7.20;5.53;;;;;;;0.73;100.00;97044.75;5024574;28;20200;-69
2022/11/25 00:32:21;;;;;;;5.77;4.90;;;;;;;0.72;100.00;97043.91;5006818;28;20266;-69
2022/11/25 00:34:48;;;;;;;6.53;5.93;;;;;;;0.73;100.00;97047.34;5037439;28;20291;-69
2022/11/25 00:37:17;;;;;;;5.90;5.30;;;;;;;0.73;100.00;97049.97;5030961;28;20227;-71
2022/11/25 00:39:45;;;;;;;6.20;5.70;;;;;;;0.82;100.00;97056.22;5007172;28;20598;-69
2022/11/25 00:44:57;;;;;;;8.47;6.07;;;;;;;0.78;100.00;97058.25;5027794;28;20196;-70
2022/11/25 00:47:25;;;;;;;23.50;7.37;;;;;;;0.62;100.00;97063.88;5030442;28;20250;-69
2022/11/25 00:49:54;;;;;;;26.77;7.60;;;;;;;0.54;100.00;97068.88;5007120;28;20219;-69
2022/11/25 00:52:24;;;;;;;22.87;10.60;;;;;;;0.48;100.00;97072.81;5032956;28;20203;-69
2022/11/25 00:54:53;;;;;;;27.50;6.30;;;;;;;0.46;100.00;97073.91;5005048;28;20219;-69
2022/11/25 00:57:23;;;;;;;11.07;7.03;;;;;;;0.36;100.00;97073.78;4981374;28;20227;-69
2022/11/25 00:59:50;;;;;;;5.40;5.00;;;;;;;0.41;100.00;97072.50;5027612;28;20258;-69
2022/11/25 01:02:18;;;;;;;6.37;5.77;;;;;;;0.40;100.00;97078.66;5036039;28;20204;-71
2022/11/25 01:04:47;;;;;;;6.13;5.73;;;;;;;0.38;100.00;97075.34;5009638;28;20223;-69
2022/11/25 01:07:14;;;;;;;7.80;6.43;;;;;;;0.49;100.00;97084.88;5031702;28;20215;-70
2022/11/25 01:09:44;;;;;;;14.80;7.90;;;;;;;0.43;100.00;97094.03;5028550;28;20207;-68
2022/11/25 01:12:11;;;;;;;16.47;7.43;;;;;;;0.47;100.00;97093.81;4973399;28;20223;-69
2022/11/25 01:14:39;;;;;;;19.67;8.03;;;;;;;0.48;100.00;97100.66;5027862;28;20835;-70
2022/11/25 01:17:07;;;;;;;20.57;9.73;;;;;;;0.50;100.00;97102.19;5000567;28;20463;-73
2022/11/25 01:19:38;;;;;;;33.30;13.37;;;;;;;0.51;100.00;97090.81;5011766;28;20260;-73
2022/11/25 01:22:06;;;;;;;16.53;8.67;;;;;;;0.64;100.00;97097.66;5027359;28;20227;-72
2022/11/25 01:24:34;;;;;;;14.03;8.23;;;;;;;0.68;100.00;97092.06;5030988;28;20206;-71
2022/11/25 01:27:03;;;;;;;6.60;6.10;;;;;;;0.76;100.00;97095.81;4973907;28;20236;-72
2022/11/25 01:29:31;;;;;;;6.80;6.17;;;;;;;0.71;100.00;97086.59;4981108;28;20405;-70
2022/11/25 01:31:59;;;;;;;10.13;6.73;;;;;;;0.56;100.00;97082.63;5031698;28;20440;-72
2022/11/25 01:34:27;;;;;;;20.67;7.90;;;;;;;0.57;100.00;97086.88;5005653;28;20231;-70
2022/11/25 01:36:55;;;;;;;11.10;6.47;;;;;;;0.59;100.00;97084.16;5035026;28;20550;-71
2022/11/25 01:39:24;;;;;;;85.07;8.97;;;;;;;0.66;100.00;97083.53;5030817;28;20215;-69
2022/11/25 01:41:59;;;;;;;118.47;13.87;;;;;;;0.76;100.00;97082.78;5004210;28;20345;-71
2022/11/25 01:44:29;;;;;;;41.00;11.07;;;;;;;0.78;100.00;97092.16;4982132;28;20211;-69
2022/11/25 01:47:01;;;;;;;68.53;18.37;;;;;;;0.86;100.00;97094.94;5028229;28;20235;-72
2022/11/25 01:49:36;;;;;;;84.33;16.57;;;;;;;0.84;100.00;97086.44;5019216;28;20471;-70
2022/11/25 01:52:09;;;;;;;63.67;18.43;;;;;;;0.82;100.00;97080.50;5030699;28;20207;-71
2022/11/25 01:54:49;;;;;;;58.87;17.37;;;;;;;0.78;100.00;97067.84;5029642;28;20224;-70
2022/11/25 01:57:22;;;;;;;39.37;14.63;;;;;;;0.79;100.00;97072.94;5008020;28;20239;-68
2022/11/25 01:59:52;;;;;;;31.87;15.30;;;;;;;0.79;100.00;97072.13;4955547;28;21071;-73
2022/11/25 02:02:24;;;;;;;60.23;14.23;;;;;;;0.71;100.00;97077.97;4973324;28;20825;-68
2022/11/25 02:05:02;;;;;;;35.77;13.23;;;;;;;0.72;100.00;97072.59;4681975;28;21260;-74
2022/11/25 02:07:36;;;;;;;25.33;11.63;;;;;;;0.81;100.00;97070.22;4689990;28;20953;-68
2022/11/25 02:10:14;;;;;;;31.00;13.13;;;;;;;0.79;100.00;97072.13;4685530;28;20782;-68
2022/11/25 02:12:49;;;;;;;16.47;10.37;;;;;;;0.82;100.00;97075.28;4686201;28;21078;-68
2022/11/25 02:15:19;;;;;;;34.67;11.87;;;;;;;0.76;100.00;97067.97;4685589;28;20396;-68
2022/11/25 02:17:48;;;;;;;27.63;9.40;;;;;;;0.84;100.00;97072.56;4698857;28;20251;-68
2022/11/25 02:20:17;;;;;;;17.73;10.93;;;;;;;0.91;100.00;97071.09;4921458;28;20227;-70
2022/11/25 02:22:53;;;;;;;18.10;10.93;;;;;;;0.85;100.00;97069.00;5023893;28;20206;-70
2022/11/25 02:25:24;;;;;;;36.90;11.77;;;;;;;0.80;100.00;97073.78;5002925;28;20210;-72
2022/11/25 02:27:54;;;;;;;46.80;19.13;;;;;;;0.72;100.00;97077.00;5033600;28;20246;-69
2022/11/25 02:30:21;;;;;;;19.30;11.57;;;;;;;0.70;100.00;97076.31;5028641;28;20458;-70
2022/11/25 02:32:49;;;;;;;54.07;20.83;;;;;;;0.62;100.00;97071.69;5027527;28;20446;-71
2022/11/25 02:35:29;;;;;;;22.93;12.60;;;;;;;0.56;100.00;97074.81;4985521;28;20223;-69
2022/11/25 02:38:00;;;;;;;35.03;13.57;;;;;;;0.60;100.00;97070.19;5021135;28;20288;-68
2022/11/25 02:40:30;;;;;;;37.97;16.70;;;;;;;0.61;100.00;97066.63;5016890;28;20461;-68
2022/11/25 02:42:59;;;;;;;20.70;12.37;;;;;;;0.63;100.00;97062.09;5013622;28;20318;-71
2022/11/25 02:45:40;;;;;;;16.40;12.13;;;;;;;0.63;100.00;97065.53;5029399;28;20288;-72
2022/11/25 02:48:08;;;;;;;53.47;16.80;;;;;;;0.70;100.00;97063.25;5029829;28;20232;-71
2022/11/25 02:50:36;;;;;;;42.40;15.27;;;;;;;0.75;100.00;97068.09;5008817;28;20203;-69
2022/11/25 02:53:04;;;;;;;40.37;16.90;;;;;;;0.78;100.00;97066.06;5008994;28;20376;-71
2022/11/25 02:55:33;;;;;;;27.17;14.10;;;;;;;0.80;100.00;97066.75;5024626;28;20281;-67
2022/11/25 02:58:01;;;;;;;37.97;15.57;;;;;;;0.88;100.00;97062.69;5019681;28;20250;-71
2022/11/25 03:00:28;;;;;;;30.03;13.80;;;;;;;0.84;100.00;97060.34;5028186;28;20211;-70
2022/11/25 03:02:56;;;;;;;23.30;14.20;;;;;;;0.84;100.00;97060.34;5030229;28;20445;-72
2022/11/25 03:05:24;;;;;;;88.53;20.07;;;;;;;0.82;100.00;97069.25;5027876;28;20211;-71
2022/11/25 03:07:52;;;;;;;73.73;19.37;;;;;;;0.85;100.00;97069.81;4975394;28;20639;-71
2022/11/25 03:10:20;;;;;;;52.10;16.83;;;;;;;0.84;100.00;97059.53;5031791;28;20606;-71
2022/11/25 03:12:49;;;;;;;37.57;17.07;;;;;;;0.85;100.00;97066.41;5001384;28;20282;-71
2022/11/25 03:15:17;;;;;;;29.93;14.77;;;;;;;0.88;100.00;97060.09;5032604;28;20711;-71
2022/11/25 03:17:44;;;;;;;47.60;16.47;;;;;;;0.91;100.00;97058.06;5028530;28;20224;-70
2022/11/25 03:20:14;;;;;;;16.13;12.90;;;;;;;1.00;100.00;97061.72;5034796;28;20207;-71
2022/11/25 03:22:42;;;;;;;27.20;15.30;;;;;;;1.06;100.00;97060.34;4979549;28;20216;-69
2022/11/25 03:25:11;;;;;;;21.07;13.00;;;;;;;1.08;100.00;97064.50;5029585;28;20488;-71
2022/11/25 03:27:39;;;;;;;20.33;14.53;;;;;;;1.10;100.00;97062.59;4997169;28;20239;-69
2022/11/25 03:30:10;;;;;;;40.13;15.60;;;;;;;1.15;100.00;97057.81;5026032;28;20200;-70
2022/11/25 03:32:38;;;;;;;28.47;14.47;;;;;;;1.12;100.00;97065.91;5030600;28;20687;-70
2022/11/25 03:35:06;;;;;;;33.43;15.90;;;;;;;1.10;100.00;97057.38;5024188;28;20326;-71
2022/11/25 03:37:34;;;;;;;63.83;20.07;;;;;;;1.09;100.00;97063.53;5009606;28;20227;-70
2022/11/25 03:40:03;;;;;;;22.30;15.37;;;;;;;1.18;100.00;97066.34;5008209;28;20239;-71
2022/11/25 03:42:31;;;;;;;17.63;13.37;;;;;;;1.26;100.00;97069.13;5026413;28;20223;-69
2022/11/25 03:44:59;;;;;;;18.57;14.63;;;;;;;1.30;100.00;97073.13;5010850;28;20306;-71
2022/11/25 03:47:28;;;;;;;52.90;21.20;;;;;;;1.25;100.00;97072.69;5029898;28;20305;-70
2022/11/25 03:49:56;;;;;;;26.87;14.90;;;;;;;1.23;100.00;97070.22;5028230;28;20219;-70
2022/11/25 03:52:23;;;;;;;25.60;15.90;;;;;;;1.22;100.00;97063.38;5031575;28;20211;-69
2022/11/25 03:54:51;;;;;;;15.00;13.33;;;;;;;1.48;100.00;97073.38;4982996;28;20445;-71
2022/11/25 03:57:19;;;;;;;46.67;16.13;;;;;;;1.47;100.00;97070.91;5023913;28;20231;-69
2022/11/25 03:59:46;;;;;;;15.13;13.27;;;;;;;1.51;100.00;97077.53;5003599;28;20644;-69
2022/11/25 04:02:14;;;;;;;26.17;15.87;;;;;;;1.35;100.00;97068.38;5034674;28;20257;-71
2022/11/25 04:04:43;;;;;;;47.80;18.03;;;;;;;1.31;100.00;97072.19;5027844;28;20207;-69
2022/11/25 04:07:11;;;;;;;68.23;19.90;;;;;;;1.26;100.00;97074.34;5026275;28;20277;-71
2022/11/25 04:09:42;;;;;;;36.13;18.67;;;;;;;1.24;100.00;97073.66;5000796;28;20261;-69
2022/11/25 04:14:55;;;;;;;28.40;15.57;;;;;;;1.22;100.00;97076.41;5000637;28;20224;-71
2022/11/25 04:17:23;;;;;;;62.60;19.27;;;;;;;1.20;100.00;97072.25;5029692;28;20285;-69
2022/11/25 04:19:52;;;;;;;71.33;21.87;;;;;;;1.07;100.00;97091.56;5031766;28;20661;-69
2022/11/25 04:22:20;;;;;;;42.10;15.70;;;;;;;1.08;100.00;97088.00;5026773;28;20262;-68
2022/11/25 04:24:51;;;;;;;35.53;15.63;;;;;;;0.99;100.00;97092.19;5023448;28;20440;-69
2022/11/25 04:27:18;;;;;;;20.27;15.30;;;;;;;1.13;100.00;97078.00;4981932;28;20450;-72
2022/11/25 04:29:47;;;;;;;95.23;19.73;;;;;;;1.05;100.00;97083.03;5029476;28;20245;-68
2022/11/25 04:32:15;;;;;;;57.67;16.50;;;;;;;1.00;100.00;97091.22;5002487;28;20317;-71
2022/11/25 04:34:42;;;;;;;38.13;18.13;;;;;;;0.91;100.00;97091.97;5030351;28;20742;-69
2022/11/25 04:37:11;;;;;;;72.10;21.00;;;;;;;0.84;100.00;97089.03;5029287;28;20360;-71
2022/11/25 04:39:39;;;;;;;58.17;17.73;;;;;;;0.90;100.00;97098.16;5033659;28;20212;-70
2022/11/25 04:44:52;;;;;;;34.27;16.20;;;;;;;0.94;100.00;97104.78;4994228;28;20718;-68
2022/11/25 04:47:39;;;;;;;42.27;21.23;;;;;;;1.06;100.00;97110.78;5002835;28;20376;-71
2022/11/25 04:50:11;;;;;;;50.20;19.10;;;;;;;0.89;100.00;97096.50;5027775;28;20346;-71
2022/11/25 04:52:40;;;;;;;46.43;18.53;;;;;;;0.89;100.00;97101.72;5026148;28;20757;-72
2022/11/25 04:55:09;;;;;;;47.67;17.17;;;;;;;0.88;100.00;97102.66;4992312;28;20220;-70
2022/11/25 04:57:36;;;;;;;73.67;23.60;;;;;;;0.80;100.00;97092.84;4973425;28;20405;-69
2022/11/25 05:00:04;;;;;;;43.80;18.47;;;;;;;0.85;100.00;97103.72;5031143;28;20755;-71
2022/11/25 05:02:32;;;;;;;112.27;21.20;;;;;;;0.74;100.00;97109.00;5003222;28;20637;-69
2022/11/25 05:05:00;;;;;;;82.13;20.30;;;;;;;0.60;100.00;97101.47;5033183;28;20212;-67
2022/11/25 05:07:28;;;;;;;48.53;16.17;;;;;;;0.62;100.00;97110.81;5003713;28;20711;-67
2022/11/25 05:09:57;;;;;;;61.07;20.23;;;;;;;0.64;100.00;97105.50;5036167;28;20548;-69
2022/11/25 05:12:27;;;;;;;47.90;17.73;;;;;;;0.68;100.00;97096.47;4979653;28;20215;-69
2022/11/25 05:14:54;;;;;;;78.93;21.60;;;;;;;0.67;100.00;97105.25;5028354;28;20337;-71
2022/11/25 05:17:23;;;;;;;63.20;19.70;;;;;;;0.69;100.00;97103.34;5030175;28;21235;-69
2022/11/25 05:19:52;;;;;;;23.93;15.10;;;;;;;0.70;100.00;97107.59;5006635;28;20421;-70
2022/11/25 05:22:21;;;;;;;55.93;19.10;;;;;;;0.79;100.00;97101.63;5004647;28;20200;-69
2022/11/25 05:24:49;;;;;;;38.47;18.63;;;;;;;0.86;100.00;97097.56;5019364;28;20317;-70
2022/11/25 05:27:18;;;;;;;65.40;21.43;;;;;;;0.81;100.00;97101.50;4975667;28;20215;-69
2022/11/25 05:29:46;;;;;;;107.63;24.23;;;;;;;0.79;100.00;97099.03;4997671;28;20207;-71
2022/11/25 05:32:22;;;;;;;48.07;18.03;;;;;;;0.77;100.00;97102.72;5031997;28;20839;-69
2022/11/25 05:34:49;;;;;;;90.70;24.07;;;;;;;0.79;100.00;97096.41;5005195;28;20873;-70
2022/11/25 05:37:17;;;;;;;62.53;18.33;;;;;;;0.85;100.00;97097.69;4998660;28;20258;-69
2022/11/25 05:39:50;;;;;;;63.00;19.47;;;;;;;0.80;100.00;97089.44;5013688;28;20306;-70
2022/11/25 05:42:19;;;;;;;73.57;25.17;;;;;;;0.73;100.00;97086.47;4981671;28;20273;-69
2022/11/25 05:44:47;;;;;;;34.10;17.97;;;;;;;0.70;100.00;97092.75;5032320;28;20810;-70
2022/11/25 05:47:15;;;;;;;43.80;16.27;;;;;;;0.68;100.00;97086.03;5031631;28;20215;-67
2022/11/25 05:49:42;;;;;;;77.57;17.93;;;;;;;0.69;100.00;97087.69;5002382;28;20895;-70
2022/11/25 05:52:10;;;;;;;42.23;19.80;;;;;;;0.71;100.00;97098.81;5029159;28;20618;-69
2022/11/25 05:54:37;;;;;;;37.73;16.93;;;;;;;0.72;100.00;97110.91;5006169;28;20207;-69
2022/11/25 05:57:05;;;;;;;31.47;14.87;;;;;;;0.66;100.00;97109.59;4990144;28;20300;-70
2022/11/25 05:59:34;;;;;;;52.07;17.40;;;;;;;0.72;100.00;97110.91;5028042;28;20532;-68
2022/11/25 06:02:02;;;;;;;53.10;18.63;;;;;;;0.76;100.00;97108.84;5032365;28;20203;-70
2022/11/25 06:04:31;;;;;;;35.00;16.93;;;;;;;0.79;100.00;97103.44;5011057;28;20299;-68
2022/11/25 06:06:59;;;;;;;55.67;20.97;;;;;;;0.86;100.00;97101.97;5024216;28;20216;-69
2022/11/25 06:09:26;;;;;;;33.80;16.40;;;;;;;0.88;100.00;97107.88;5009468;28;20207;-67
2022/11/25 06:11:54;;;;;;;50.93;17.87;;;;;;;0.98;100.00;97098.34;5028044;28;20758;-69
2022/11/25 06:14:21;;;;;;;34.67;15.97;;;;;;;1.03;100.00;97100.59;4980537;28;20770;-68
2022/11/25 06:16:52;;;;;;;33.20;15.77;;;;;;;1.11;100.00;97106.00;4978916;28;20219;-68
2022/11/25 06:19:20;;;;;;;49.73;21.10;;;;;;;1.11;100.00;97108.63;5019028;28;20607;-68
2022/11/25 06:21:47;;;;;;;51.90;19.97;;;;;;;1.15;100.00;97114.41;4996941;28;20207;-68
2022/11/25 06:24:15;;;;;;;40.70;19.30;;;;;;;1.19;100.00;97110.59;4995137;28;20675;-70
2022/11/25 06:26:43;;;;;;;141.40;28.03;;;;;;;1.19;100.00;97107.16;5031195;28;20219;-68
2022/11/25 06:29:10;;;;;;;87.50;25.30;;;;;;;1.23;100.00;97104.16;4973289;28;20654;-69
2022/11/25 06:31:39;;;;;;;48.20;22.00;;;;;;;1.24;100.00;97104.97;4974503;28;20203;-68
2022/11/25 06:34:08;;;;;;;88.67;23.37;;;;;;;1.20;100.00;97109.66;4998427;28;20269;-69
2022/11/25 06:36:36;;;;;;;84.63;26.00;;;;;;;1.18;100.00;97105.50;5025360;28;20232;-68
2022/11/25 06:39:03;;;;;;;41.83;19.30;;;;;;;1.27;100.00;97109.94;5004844;28;20223;-70
2022/11/25 06:41:31;;;;;;;78.87;23.20;;;;;;;1.27;100.00;97113.41;5028827;28;20215;-68
2022/11/25 06:43:58;;;;;;;45.23;22.53;;;;;;;1.26;100.00;97109.13;5030005;28;20282;-70
2022/11/25 06:46:30;;;;;;;92.63;24.90;;;;;;;1.33;100.00;97114.69;5009502;28;20239;-68
2022/11/25 06:48:59;;;;;;;58.27;24.03;;;;;;;1.34;100.00;97112.88;5017230;28;20537;-68
2022/11/25 06:51:28;;;;;;;50.20;24.13;;;;;;;1.35;100.00;97117.16;5027662;28;20204;-69
2022/11/25 06:53:55;;;;;;;86.03;26.50;;;;;;;1.33;100.00;97119.06;5031014;28;20433;-67
2022/11/25 06:56:25;;;;;;;69.37;27.23;;;;;;;1.29;100.00;97108.03;5000145;28;20239;-69
2022/11/25 06:58:54;;;;;;;67.53;28.07;;;;;;;1.32;100.00;97120.81;5028520;28;20211;-68
2022/11/25 07:01:23;;;;;;;58.93;25.37;;;;;;;1.34;100.00;97120.72;5031850;28;20203;-68
2022/11/25 07:03:52;;;;;;;83.47;23.70;;;;;;;1.42;100.00;97116.53;4983269;28;20372;-70
2022/11/25 07:06:21;;;;;;;69.77;27.37;;;;;;;1.44;100.00;97111.16;5026773;28;20613;-70
2022/11/25 07:08:50;;;;;;;57.60;25.40;;;;;;;1.43;100.00;97123.41;5029000;28;20345;-71
2022/11/25 07:11:20;;;;;;;63.83;26.17;;;;;;;1.43;100.00;97125.16;4999344;28;20635;-70
2022/11/25 07:13:48;;;;;;;52.50;25.27;;;;;;;1.42;100.00;97124.34;5024052;28;20210;-70
2022/11/25 07:16:15;;;;;;;44.50;25.20;;;;;;;1.56;100.00;97131.03;5028842;28;20243;-68
2022/11/25 07:18:43;;;;;;;45.77;25.03;;;;;;;1.60;100.00;97121.16;4978048;28;20810;-67
2022/11/25 07:21:12;;;;;;;46.53;26.57;;;;;;;1.53;100.00;97133.06;5028793;28;20265;-69
2022/11/25 07:23:40;;;;;;;49.17;25.73;;;;;;;1.57;100.00;97131.84;5025408;28;20424;-69
2022/11/25 07:26:11;;;;;;;40.43;23.53;;;;;;;1.72;100.00;97130.56;5000975;28;20220;-71
2022/11/25 07:28:39;;;;;;;43.87;25.17;;;;;;;1.82;100.00;97137.63;5027085;28;20203;-69
2022/11/25 07:31:08;;;;;;;47.33;26.57;;;;;;;1.82;100.00;97137.63;5027945;28;20721;-72
2022/11/25 07:33:58;;;;;;;44.27;24.70;;;;;;;1.71;100.00;97134.16;5029682;28;20376;-67
2022/11/25 07:36:26;;;;;;;82.17;29.50;;;;;;;1.72;100.00;97138.41;4978462;28;20244;-68
2022/11/25 07:38:53;;;;;;;61.03;27.80;;;;;;;1.65;100.00;97136.44;5029168;28;20203;-69
2022/11/25 07:41:25;;;;;;;70.40;26.27;;;;;;;1.63;100.00;97141.78;5002383;28;20211;-69
2022/11/25 07:43:54;;;;;;;55.50;24.77;;;;;;;1.60;100.00;97139.44;5029186;28;20279;-67
2022/11/25 07:46:24;;;;;;;43.03;25.63;;;;;;;1.67;100.00;97143.16;5026752;28;20417;-70
2022/11/25 07:48:55;;;;;;;49.53;26.43;;;;;;;1.76;100.00;97146.00;5030767;28;20207;-70
2022/11/25 07:51:24;;;;;;;50.70;26.93;;;;;;;1.71;100.00;97147.22;4976461;28;20204;-70
2022/11/25 07:53:53;;;;;;;63.60;30.23;;;;;;;1.66;100.00;97151.97;5027133;28;20261;-70
2022/11/25 07:56:25;;;;;;;64.97;29.03;;;;;;;1.68;100.00;97159.69;5029476;28;20722;-69
2022/11/25 07:58:53;;;;;;;58.63;26.97;;;;;;;1.66;100.00;97167.63;5015041;28;20424;-70
2022/11/25 08:01:21;;;;;;;64.67;27.30;;;;;;;1.72;100.00;97166.31;5028513;28;20269;-68
2022/11/25 08:03:50;;;;;;;54.43;27.53;;;;;;;1.75;100.00;97175.69;5029336;28;20265;-70
2022/11/25 08:06:19;;;;;;;44.67;27.90;;;;;;;1.80;100.00;97170.91;4980629;28;20238;-69
2022/11/25 08:08:47;;;;;;;51.43;29.27;;;;;;;1.82;100.00;97174.22;5030553;28;20204;-71
2022/11/25 08:11:17;;;;;;;54.60;29.23;;;;;;;1.83;100.00;97175.88;5034273;28;20582;-70
2022/11/25 08:13:46;;;;;;;55.07;30.30;;;;;;;1.88;100.00;97176.31;4996362;28;20217;-68
2022/11/25 08:16:16;;;;;;;51.70;29.73;;;;;;;1.93;100.00;97187.19;5033159;28;20737;-70
2022/11/25 08:18:44;;;;;;;53.40;31.00;;;;;;;1.97;100.00;97187.78;5027779;28;20224;-69
2022/11/25 08:21:14;;;;;;;51.30;30.50;;;;;;;1.90;100.00;97181.41;5030189;28;20871;-70
2022/11/25 08:23:42;;;;;;;53.70;31.73;;;;;;;1.92;100.00;97182.09;4977931;28;20864;-69
2022/11/25 08:26:13;;;;;;;54.83;31.20;;;;;;;1.89;100.00;97177.94;5033722;28;20204;-70
2022/11/25 08:28:41;;;;;;;59.10;29.23;;;;;;;1.88;100.00;97181.53;5005638;28;20602;-71
2022/11/25 08:31:12;;;;;;;53.70;31.13;;;;;;;1.84;100.00;97175.72;5030265;28;20635;-69
2022/11/25 08:33:40;;;;;;;58.93;32.17;;;;;;;1.87;100.00;97179.88;5029620;28;20203;-69
2022/11/25 08:36:09;;;;;;;53.97;32.00;;;;;;;1.84;100.00;97177.53;5031957;28;20208;-70
2022/11/25 08:38:36;;;;;;;52.70;32.20;;;;;;;1.91;100.00;97176.03;4981966;28;20607;-70
2022/11/25 08:41:09;;;;;;;54.90;35.10;;;;;;;1.92;100.00;97171.66;4970426;28;20224;-67
2022/11/25 08:43:37;;;;;;;56.37;32.33;;;;;;;1.97;100.00;97177.31;5032499;28;20408;-69
2022/11/25 08:46:08;;;;;;;52.23;32.83;;;;;;;2.01;100.00;97189.97;5030444;28;20663;-67
2022/11/25 08:48:37;;;;;;;51.87;33.00;;;;;;;1.90;100.00;97187.44;5028400;28;20606;-69
2022/11/25 08:51:08;;;;;;;47.40;33.33;;;;;;;1.94;100.00;97191.47;5027128;28;20211;-67
2022/11/25 08:53:36;;;;;;;60.67;31.93;;;;;;;1.95;100.00;97192.28;5031773;28;20765;-71
2022/11/25 08:56:04;;;;;;;49.87;31.27;;;;;;;2.05;100.00;97192.31;4948171;28;20791;-68
2022/11/25 08:58:32;;;;;;;47.67;31.27;;;;;;;2.03;100.00;97201.13;5031545;28;20489;-71
2022/11/25 09:01:01;;;;;;;53.47;31.67;;;;;;;2.01;100.00;97207.47;5027820;28;20199;-69
2022/11/25 09:03:32;;;;;;;47.97;31.90;;;;;;;2.06;100.00;97207.06;5015005;28;20710;-72
2022/11/25 09:06:02;;;;;;;52.00;31.70;;;;;;;2.00;100.00;97206.63;5030586;28;20223;-70
2022/11/25 09:08:30;;;;;;;43.10;30.67;;;;;;;1.93;100.00;97213.31;5031376;28;20352;-71
2022/11/25 09:10:58;;;;;;;46.10;29.97;;;;;;;2.01;100.00;97215.28;4981142;28;20605;-70
2022/11/25 09:13:26;;;;;;;45.10;31.43;;;;;;;2.03;100.00;97216.00;5026703;28;20196;-69
2022/11/25 09:15:54;;;;;;;44.67;31.57;;;;;;;2.09;100.00;97214.66;5032172;28;20732;-69
2022/11/25 09:18:25;;;;;;;48.03;29.20;;;;;;;2.14;100.00;97210.69;4999840;28;20249;-71
2022/11/25 09:20:53;;;;;;;40.57;27.23;;;;;;;2.18;100.00;97219.09;5029342;28;20218;-68
2022/11/25 09:23:23;;;;;;;37.90;27.07;;;;;;;2.14;100.00;97223.75;5024945;28;20439;-70
2022/11/25 09:25:51;;;;;;;40.27;28.43;;;;;;;2.23;100.00;97229.16;4985444;28;20207;-70
2022/11/25 09:28:19;;;;;;;37.90;28.80;;;;;;;2.20;100.00;97217.19;5026255;28;20298;-68
2022/11/25 09:30:47;;;;;;;38.90;29.43;;;;;;;2.23;100.00;97219.53;5030020;28;20200;-67
2022/11/25 09:33:15;;;;;;;36.67;27.47;;;;;;;2.38;100.00;97219.19;4999710;28;20208;-68
2022/11/25 09:35:43;;;;;;;36.23;27.30;;;;;;;2.26;100.00;97216.66;5030758;28;20720;-70
2022/11/25 09:38:10;;;;;;;37.63;28.53;;;;;;;2.33;100.00;97211.75;5028661;28;20232;-69
2022/11/25 09:40:45;;;;;;;40.67;28.57;;;;;;;2.51;100.00;97216.34;5029038;28;20797;-69
2022/11/25 09:49:04;;;;;;;33.53;26.87;;;;;;;2.91;100.00;97219.91;5002280;28;20203;-68
2022/11/25 09:51:39;;;;;;;36.33;27.90;;;;;;;3.16;100.00;97221.19;5028355;28;20497;-70
2022/11/25 09:54:11;;;;;;;32.47;27.53;;;;;;;3.26;100.00;97213.34;5023645;28;20215;-68
2022/11/25 09:56:42;;;;;;;30.33;25.17;;;;;;;3.19;100.00;97208.63;4980082;28;21590;-69
2022/11/25 09:59:13;;;;;;;32.30;25.83;;;;;;;3.29;100.00;97213.06;5027501;28;20232;-68
2022/11/25 10:01:47;;;;;;;30.20;25.90;;;;;;;3.19;100.00;97205.19;5030249;28;20268;-69
2022/11/25 10:04:19;;;;;;;28.07;24.17;;;;;;;3.11;100.00;97200.63;5001223;28;20234;-68
2022/11/25 10:06:52;;;;;;;25.53;22.73;;;;;;;2.98;100.00;97206.13;5027386;28;20242;-70
2022/11/25 10:09:24;;;;;;;24.07;21.50;;;;;;;2.96;100.00;97200.19;5023525;28;20421;-70
2022/11/25 10:11:55;;;;;;;25.47;22.13;;;;;;;2.92;100.00;97211.91;4981273;28;20208;-69
2022/11/25 10:14:30;;;;;;;22.70;20.50;;;;;;;2.80;100.00;97203.34;5026221;28;20441;-70
2022/11/25 10:17:03;;;;;;;24.63;22.03;;;;;;;2.78;100.00;97207.06;5028611;28;20303;-68
2022/11/25 10:19:47;;;;;;;23.90;19.97;;;;;;;2.84;100.00;97209.97;4999768;28;20537;-69
2022/11/25 10:22:23;;;;;;;22.50;19.73;;;;;;;2.89;100.00;97215.63;5025853;28;20662;-67
2022/11/25 10:24:53;;;;;;;22.27;19.13;;;;;;;2.75;100.00;97211.59;5028869;28;20200;-71
2022/11/25 10:27:25;;;;;;;21.33;19.23;;;;;;;2.85;100.00;97206.41;4974474;28;20472;-69
2022/11/25 10:30:01;;;;;;;21.27;19.10;;;;;;;2.86;100.00;97213.28;5027313;28;20199;-68
2022/11/25 10:32:33;;;;;;;19.03;17.23;;;;;;;2.71;100.00;97204.16;5027578;28;20769;-70
2022/11/25 10:35:05;;;;;;;21.53;19.27;;;;;;;2.55;100.00;97197.66;5000991;28;20208;-69
2022/11/25 10:37:36;;;;;;;21.47;19.40;;;;;;;2.64;100.00;97201.22;5026510;28;20337;-67
2022/11/25 10:40:05;;;;;;;20.50;18.40;;;;;;;2.63;100.00;97198.75;5027758;28;20211;-69
2022/11/25 10:42:35;;;;;;;21.90;19.60;;;;;;;2.66;100.00;97201.09;4979523;28;20612;-68
2022/11/25 10:45:07;;;;;;;19.33;17.43;;;;;;;2.83;100.00;97191.78;5028933;28;20196;-68
2022/11/25 10:47:37;;;;;;;20.30;18.40;;;;;;;2.95;100.00;97197.72;4962654;28;20235;-69
2022/11/25 10:50:17;;;;;;;20.53;18.47;;;;;;;2.92;100.00;97204.06;5001942;28;20504;-68
2022/11/25 10:52:51;;;;;;;18.90;17.10;;;;;;;2.84;100.00;97191.66;5000029;28;20532;-68
2022/11/25 10:55:20;;;;;;;18.93;17.13;;;;;;;2.69;100.00;97187.75;5003948;28;20468;-70
2022/11/25 10:57:49;;;;;;;18.33;16.73;;;;;;;2.86;100.00;97188.91;5026130;28;20219;-71
2022/11/25 11:00:33;;;;;;;17.83;16.23;;;;;;;2.72;100.00;97185.72;5029524;28;20199;-70
2022/11/25 11:03:13;;;;;;;18.13;16.27;;;;;;;2.76;100.00;97188.88;4979754;28;20303;-71
2022/11/25 11:05:45;;;;;;;17.77;15.97;;;;;;;2.79;100.00;97185.16;5023428;28;20213;-70
2022/11/25 11:08:19;;;;;;;17.73;15.97;;;;;;;2.81;100.00;97193.72;5023496;28;20562;-70
2022/11/25 11:10:48;;;;;;;17.00;15.50;;;;;;;2.96;100.00;97197.59;4974064;28;20206;-70
2022/11/25 11:13:25;;;;;;;17.83;16.13;;;;;;;2.98;100.00;97194.84;5027279;28;20199;-71
2022/11/25 11:15:54;;;;;;;16.97;15.47;;;;;;;3.07;100.00;97194.03;5027180;28;20199;-69
2022/11/25 11:18:25;;;;;;;16.67;15.17;;;;;;;3.24;100.00;97189.91;4975694;28;20231;-70
2022/11/25 11:20:55;;;;;;;17.60;16.00;;;;;;;3.22;100.00;97183.97;5025457;28;20204;-69
2022/11/25 11:23:23;;;;;;;16.03;14.57;;;;;;;3.39;100.00;97184.22;5028448;28;20663;-70
2022/11/25 11:25:56;;;;;;;16.20;14.70;;;;;;;3.37;100.00;97179.16;4977313;28;20515;-71
2022/11/25 11:28:31;;;;;;;16.43;14.97;;;;;;;3.38;100.00;97175.56;5029013;28;20246;-72
2022/11/25 11:31:02;;;;;;;15.13;13.73;;;;;;;3.46;100.00;97177.50;5025299;28;20404;-68
2022/11/25 11:33:34;;;;;;;14.33;13.03;;;;;;;3.25;100.00;97185.50;4977588;28;20752;-69
2022/11/25 11:36:11;;;;;;;15.17;13.93;;;;;;;3.25;100.00;97180.28;5026971;28;20211;-72
2022/11/25 11:38:45;;;;;;;15.20;13.73;;;;;;;3.26;100.00;97182.72;5032084;28;22608;-69
2022/11/25 11:41:18;;;;;;;13.83;12.53;;;;;;;3.13;100.00;97177.75;4981394;28;20516;-70
2022/11/25 11:43:56;;;;;;;13.50;12.30;;;;;;;3.21;100.00;97174.47;5032467;28;20210;-68